Time;durP1;ratioP1;P1;durP2;ratioP2;P2;SDS_P1;SDS_P2;PMS_P1;PMS_P2;Temp;Humidity;BMP_temperature;BMP_pressure;BME280_temperature;BME280_humidity;BME280_pressure;Samples;Min_cycle;Max_cycle;Signal;HPM_P1;HPM_P2
2023/01/15 00:01:36;;;;;;;38.70;14.80;;;9.50;94.90;;;;;;5063593;28;20214;-77
2023/01/15 00:04:06;;;;;;;40.00;15.80;;;9.50;94.90;;;;;;5062922;28;20202;-75
2023/01/15 00:06:37;;;;;;;41.15;17.83;;;9.50;94.90;;;;;;5063638;28;20439;-75
2023/01/15 00:09:08;;;;;;;41.37;16.07;;;9.50;95.10;;;;;;5067618;28;20187;-76
2023/01/15 00:11:37;;;;;;;40.30;15.43;;;9.50;95.10;;;;;;5066362;28;20189;-76
2023/01/15 00:14:05;;;;;;;45.93;17.43;;;9.50;95.00;;;;;;5068550;28;20247;-75
2023/01/15 00:16:33;;;;;;;40.83;15.80;;;9.50;95.00;;;;;;5058935;28;20195;-75
2023/01/15 00:19:03;;;;;;;46.37;17.07;;;9.50;95.00;;;;;;5059474;28;20238;-76
2023/01/15 00:21:31;;;;;;;42.70;15.40;;;9.50;95.00;;;;;;5065659;28;20213;-76
2023/01/15 00:29:33;;;;;;;39.30;16.73;;;9.50;95.00;;;;;;5063974;28;20183;-76
2023/01/15 00:32:04;;;;;;;41.40;15.37;;;9.50;95.00;;;;;;5064364;28;20191;-74
2023/01/15 00:34:33;;;;;;;48.57;18.60;;;9.50;95.00;;;;;;5062740;28;20194;-76
2023/01/15 00:37:02;;;;;;;36.17;15.27;;;9.50;95.00;;;;;;5059904;28;20724;-75
2023/01/15 00:39:30;;;;;;;39.13;15.40;;;9.50;95.00;;;;;;5059833;28;20195;-75
2023/01/15 00:42:00;;;;;;;43.85;17.08;;;9.50;95.00;;;;;;5056157;28;20541;-76
2023/01/15 00:44:28;;;;;;;38.37;16.73;;;9.60;95.20;;;;;;5060431;28;20198;-75
2023/01/15 00:46:56;;;;;;;39.53;16.30;;;9.50;95.20;;;;;;5056784;28;20262;-76
2023/01/15 00:49:25;;;;;;;42.57;15.23;;;9.60;95.20;;;;;;5058067;28;20605;-75
2023/01/15 00:51:53;;;;;;;41.07;15.33;;;9.60;95.10;;;;;;5066968;28;20190;-75
2023/01/15 00:54:21;;;;;;;44.78;17.38;;;9.60;95.10;;;;;;5063291;28;20447;-75
2023/01/15 00:56:49;;;;;;;43.67;16.87;;;9.60;95.30;;;;;;5060339;28;20194;-76
2023/01/15 00:59:19;;;;;;;40.47;15.07;;;9.60;95.30;;;;;;5061700;28;20190;-76
2023/01/15 01:01:47;;;;;;;32.17;13.83;;;9.60;95.20;;;;;;5075013;28;20187;-75
2023/01/15 01:04:16;;;;;;;33.03;13.63;;;9.60;95.20;;;;;;5060684;28;20200;-75
2023/01/15 01:06:44;;;;;;;32.80;12.33;;;9.60;95.20;;;;;;5068263;28;20651;-76
2023/01/15 01:09:13;;;;;;;41.10;15.47;;;9.60;95.10;;;;;;5062356;28;20198;-75
2023/01/15 01:11:42;;;;;;;41.77;14.80;;;9.60;95.10;;;;;;5062264;28;20190;-75
2023/01/15 01:14:12;;;;;;;35.33;14.93;;;9.60;95.10;;;;;;5067552;28;20186;-76
2023/01/15 01:16:42;;;;;;;37.38;15.90;;;9.70;95.10;;;;;;5067915;28;20435;-75
2023/01/15 01:19:12;;;;;;;40.10;14.37;;;9.60;95.00;;;;;;5068970;28;20199;-75
2023/01/15 01:21:42;;;;;;;40.27;15.53;;;9.70;95.10;;;;;;5064488;28;20198;-75
2023/01/15 01:24:12;;;;;;;32.90;14.03;;;9.60;95.00;;;;;;5062120;28;20256;-75
2023/01/15 01:26:42;;;;;;;34.87;14.13;;;9.60;95.00;;;;;;5068510;28;20194;-76
2023/01/15 01:29:12;;;;;;;33.80;14.03;;;9.60;95.00;;;;;;5070686;28;20281;-75
2023/01/15 01:31:42;;;;;;;31.80;12.87;;;9.60;94.90;;;;;;5061915;28;20195;-75
2023/01/15 01:34:11;;;;;;;31.83;12.13;;;9.60;95.00;;;;;;5066702;28;20195;-76
2023/01/15 01:36:41;;;;;;;33.20;11.53;;;9.60;94.90;;;;;;5068398;28;20225;-76
2023/01/15 01:39:14;;;;;;;31.27;12.23;;;9.60;94.90;;;;;;5063088;28;20194;-76
2023/01/15 01:41:43;;;;;;;30.03;11.37;;;9.60;94.90;;;;;;5065979;28;20186;-74
2023/01/15 01:44:49;;;;;;;29.20;13.20;;;9.60;94.90;;;;;;5064434;28;20254;-76
2023/01/15 01:47:23;;;;;;;30.20;12.73;;;9.60;95.00;;;;;;5050960;28;20204;-76
2023/01/15 01:49:54;;;;;;;25.90;10.60;;;9.60;95.00;;;;;;5069082;28;20188;-76
2023/01/15 01:52:27;;;;;;;26.33;10.80;;;9.60;95.00;;;;;;5064691;28;20246;-76
2023/01/15 01:54:56;;;;;;;29.97;11.53;;;9.50;94.90;;;;;;5072268;28;20190;-76
2023/01/15 01:57:25;;;;;;;28.47;11.37;;;9.60;94.90;;;;;;5062336;28;20225;-76
2023/01/15 01:59:55;;;;;;;28.00;11.20;;;9.50;94.90;;;;;;5073863;28;20186;-76
2023/01/15 02:02:25;;;;;;;29.03;11.50;;;9.60;94.90;;;;;;5064087;28;20213;-76
2023/01/15 02:04:53;;;;;;;31.63;12.77;;;9.50;94.90;;;;;;5072519;28;20197;-75
2023/01/15 02:07:22;;;;;;;25.43;11.03;;;9.50;94.90;;;;;;5074568;28;20266;-75
2023/01/15 02:09:50;;;;;;;24.60;11.40;;;9.50;94.90;;;;;;5067413;28;20249;-75
2023/01/15 02:12:24;;;;;;;26.07;11.33;;;9.50;94.90;;;;;;5065582;28;20280;-76
2023/01/15 02:15:02;;;;;;;30.07;10.97;;;9.40;94.90;;;;;;5072276;28;20194;-75
2023/01/15 02:17:38;;;;;;;26.73;10.83;;;9.40;94.90;;;;;;5062770;28;20190;-76
2023/01/15 02:20:21;;;;;;;29.97;10.63;;;9.40;94.90;;;;;;5067306;28;20240;-75
2023/01/15 02:23:01;;;;;;;26.63;11.20;;;9.40;95.00;;;;;;5068450;28;20210;-75
2023/01/15 02:25:37;;;;;;;25.00;9.50;;;9.40;95.00;;;;;;5068650;28;20247;-75
2023/01/15 02:28:15;;;;;;;31.10;11.93;;;9.40;95.00;;;;;;5062914;28;20225;-75
2023/01/15 02:30:47;;;;;;;26.80;10.60;;;9.40;94.90;;;;;;5070604;28;20187;-75
2023/01/15 02:33:21;;;;;;;29.60;10.70;;;9.40;95.00;;;;;;5066893;28;20268;-74
2023/01/15 02:35:56;;;;;;;23.27;9.90;;;9.40;95.00;;;;;;5064924;28;20659;-76
2023/01/15 02:38:28;;;;;;;28.33;9.13;;;9.40;95.00;;;;;;5061364;28;20195;-76
2023/01/15 02:41:00;;;;;;;28.27;11.10;;;9.30;95.00;;;;;;5063431;28;20194;-74
2023/01/15 02:43:35;;;;;;;31.03;10.10;;;9.30;94.90;;;;;;5056767;28;20214;-75
2023/01/15 02:46:06;;;;;;;36.23;11.37;;;9.30;95.00;;;;;;5061023;28;20253;-76
2023/01/15 02:48:38;;;;;;;32.80;11.67;;;9.30;95.00;;;;;;5056206;28;20198;-76
2023/01/15 02:51:10;;;;;;;31.47;10.63;;;9.30;95.00;;;;;;5060133;28;20186;-76
2023/01/15 02:53:42;;;;;;;33.60;10.63;;;9.20;95.00;;;;;;5068593;28;20355;-75
2023/01/15 02:56:15;;;;;;;31.47;11.03;;;9.20;95.10;;;;;;5065692;28;20195;-76
2023/01/15 02:58:47;;;;;;;31.63;11.97;;;9.20;95.20;;;;;;5059811;28;22181;-75
2023/01/15 03:01:20;;;;;;;27.73;10.73;;;9.20;95.10;;;;;;5068271;28;20205;-75
2023/01/15 03:03:56;;;;;;;32.03;12.07;;;9.20;95.20;;;;;;5065813;28;20203;-74
2023/01/15 03:06:32;;;;;;;35.90;12.47;;;9.20;95.20;;;;;;5067271;28;20857;-75
2023/01/15 03:09:02;;;;;;;30.83;9.90;;;9.20;95.20;;;;;;5067099;28;20090;-75
2023/01/15 03:11:37;;;;;;;32.13;10.97;;;9.20;95.30;;;;;;5064318;28;20195;-77
2023/01/15 03:14:15;;;;;;;31.53;11.17;;;9.10;95.30;;;;;;5063910;28;20197;-75
2023/01/15 03:16:47;;;;;;;30.10;11.33;;;9.10;95.40;;;;;;5060529;28;20183;-75
2023/01/15 03:19:23;;;;;;;28.43;10.60;;;9.10;95.40;;;;;;5064207;28;20245;-74
2023/01/15 03:21:57;;;;;;;37.70;12.37;;;9.00;95.40;;;;;;5067124;28;20256;-76
2023/01/15 03:24:31;;;;;;;41.20;11.77;;;9.00;95.60;;;;;;5062300;28;20214;-75
2023/01/15 03:27:00;;;;;;;38.93;11.63;;;9.00;95.50;;;;;;5070813;28;20194;-77
2023/01/15 03:29:33;;;;;;;38.10;11.40;;;9.00;95.60;;;;;;5063025;28;20194;-75
2023/01/15 03:32:02;;;;;;;39.57;10.47;;;9.10;95.60;;;;;;5072104;28;20539;-75
2023/01/15 03:34:37;;;;;;;41.83;12.10;;;9.00;95.60;;;;;;5064294;28;20716;-75
2023/01/15 03:37:06;;;;;;;32.73;10.10;;;9.10;95.70;;;;;;5061756;28;20626;-77
2023/01/15 03:39:34;;;;;;;45.93;11.00;;;9.00;95.70;;;;;;5061538;28;20621;-76
2023/01/15 03:42:15;;;;;;;33.80;10.03;;;9.10;95.80;;;;;;5059971;28;20647;-75
2023/01/15 03:44:53;;;;;;;40.43;11.80;;;9.00;95.70;;;;;;5060784;28;20206;-76
2023/01/15 03:47:33;;;;;;;37.63;11.43;;;9.10;95.80;;;;;;5072123;28;21114;-75
2023/01/15 03:50:10;;;;;;;40.90;11.20;;;9.10;95.80;;;;;;5070136;28;20595;-74
2023/01/15 03:52:45;;;;;;;46.73;13.67;;;9.10;95.90;;;;;;5056997;28;20230;-75
2023/01/15 03:55:17;;;;;;;41.17;11.70;;;9.10;95.90;;;;;;5063262;28;20218;-76
2023/01/15 03:57:50;;;;;;;42.90;11.03;;;9.10;95.90;;;;;;5067520;28;20187;-76
2023/01/15 04:00:26;;;;;;;39.93;12.17;;;9.10;95.90;;;;;;5063920;28;20721;-75
2023/01/15 04:02:57;;;;;;;39.43;11.67;;;9.10;95.90;;;;;;5061097;28;20187;-75
2023/01/15 04:05:28;;;;;;;55.20;14.60;;;9.10;96.00;;;;;;5063917;28;20675;-76
2023/01/15 04:07:58;;;;;;;44.10;12.50;;;9.10;96.00;;;;;;5062349;28;20247;-76
2023/01/15 04:10:26;;;;;;;45.20;14.50;;;9.10;96.30;;;;;;5066481;28;20202;-74
2023/01/15 04:12:55;;;;;;;36.70;11.87;;;9.10;96.00;;;;;;5062028;28;20218;-75
2023/01/15 04:15:25;;;;;;;43.33;14.43;;;9.10;96.00;;;;;;5061291;28;20586;-75
2023/01/15 04:17:53;;;;;;;42.57;12.07;;;9.10;96.10;;;;;;5070040;28;20662;-75
2023/01/15 04:20:21;;;;;;;46.10;12.70;;;9.10;96.10;;;;;;5072689;28;20190;-76
2023/01/15 04:22:49;;;;;;;45.60;14.57;;;9.10;96.00;;;;;;5061805;28;20239;-76
2023/01/15 04:25:18;;;;;;;46.47;12.97;;;9.10;96.10;;;;;;5070862;28;20218;-75
2023/01/15 04:27:46;;;;;;;39.63;13.20;;;9.10;96.10;;;;;;5063872;28;20185;-75
2023/01/15 04:30:16;;;;;;;44.60;13.70;;;9.10;96.10;;;;;;5064306;28;20189;-74
2023/01/15 04:32:49;;;;;;;62.17;15.33;;;9.10;96.10;;;;;;5052486;28;20708;-76
2023/01/15 04:35:17;;;;;;;40.70;14.13;;;9.10;96.20;;;;;;5062283;28;20863;-76
2023/01/15 04:37:46;;;;;;;47.67;14.00;;;9.10;96.20;;;;;;5067410;28;20260;-74
2023/01/15 04:44:05;;;;;;;38.20;13.90;;;9.10;96.20;;;;;;5063563;28;20563;-76
2023/01/15 04:45:48;;;;;;;49.83;15.07;;;9.10;96.20;;;;;;5061591;28;20244;-75
2023/01/15 04:48:18;;;;;;;38.53;14.83;;;9.10;96.20;;;;;;5054310;28;20199;-75
2023/01/15 04:50:46;;;;;;;41.07;16.43;;;9.20;96.30;;;;;;5061851;28;20202;-76
2023/01/15 04:53:15;;;;;;;54.47;16.10;;;9.10;96.30;;;;;;5065160;28;20253;-75
2023/01/15 04:55:43;;;;;;;46.27;15.13;;;9.10;96.30;;;;;;5071284;28;20259;-75
2023/01/15 04:58:11;;;;;;;45.50;15.53;;;9.20;96.30;;;;;;5064834;28;20591;-75
2023/01/15 05:00:40;;;;;;;45.70;16.07;;;9.10;96.30;;;;;;5064024;28;20230;-75
2023/01/15 05:03:09;;;;;;;42.53;16.47;;;9.10;96.30;;;;;;5067804;28;20556;-75
2023/01/15 05:05:38;;;;;;;45.07;16.97;;;9.10;96.70;;;;;;5066310;28;20682;-77
2023/01/15 05:08:07;;;;;;;45.00;16.97;;;9.10;96.40;;;;;;5071724;28;20195;-75
2023/01/15 05:10:35;;;;;;;49.13;16.00;;;9.10;96.40;;;;;;5070206;28;20276;-76
2023/01/15 05:13:03;;;;;;;41.57;15.73;;;9.10;96.40;;;;;;5063196;28;20423;-75
2023/01/15 05:15:31;;;;;;;40.77;15.80;;;9.10;96.40;;;;;;5068944;28;20597;-77
2023/01/15 05:18:00;;;;;;;38.43;14.23;;;9.10;96.40;;;;;;5064639;28;20281;-75
2023/01/15 05:20:28;;;;;;;38.93;15.33;;;9.10;96.40;;;;;;5065192;28;20298;-76
2023/01/15 05:22:58;;;;;;;46.90;15.30;;;9.10;96.40;;;;;;5062079;28;20252;-76
2023/01/15 05:25:26;;;;;;;42.93;15.00;;;9.10;96.40;;;;;;5068238;28;20648;-75
2023/01/15 05:27:54;;;;;;;35.67;13.73;;;9.10;96.40;;;;;;5065410;28;20195;-76
2023/01/15 05:30:22;;;;;;;42.23;14.43;;;9.10;96.40;;;;;;5065611;28;20205;-75
2023/01/15 05:32:51;;;;;;;43.57;14.33;;;9.10;96.40;;;;;;5066412;28;20631;-76
2023/01/15 05:35:19;;;;;;;37.00;13.90;;;9.10;96.40;;;;;;5074107;28;20638;-75
2023/01/15 05:37:47;;;;;;;46.40;14.23;;;9.10;96.40;;;;;;5069978;28;20646;-76
2023/01/15 05:40:17;;;;;;;34.00;13.40;;;9.10;96.50;;;;;;5067688;28;20650;-76
2023/01/15 05:42:45;;;;;;;33.03;12.93;;;9.10;96.40;;;;;;5064573;28;20195;-76
2023/01/15 05:45:14;;;;;;;33.53;12.97;;;9.10;96.40;;;;;;5070600;28;20277;-74
2023/01/15 05:47:42;;;;;;;28.97;13.07;;;9.20;96.40;;;;;;5072298;28;20187;-75
2023/01/15 05:50:11;;;;;;;30.33;12.43;;;9.20;96.40;;;;;;5069849;28;20189;-76
2023/01/15 05:52:39;;;;;;;24.80;12.60;;;9.20;96.40;;;;;;5066132;28;20754;-76
2023/01/15 05:55:08;;;;;;;30.33;11.70;;;9.20;96.30;;;;;;5065597;28;20675;-76
2023/01/15 05:57:38;;;;;;;26.40;11.50;;;9.20;96.30;;;;;;5063913;28;20194;-75
2023/01/15 06:00:08;;;;;;;32.47;12.97;;;9.20;96.40;;;;;;5065884;28;20198;-76
2023/01/15 06:02:37;;;;;;;29.60;12.87;;;9.30;96.40;;;;;;5061780;28;20635;-77
2023/01/15 06:05:06;;;;;;;30.30;12.00;;;9.30;96.30;;;;;;5067794;28;20218;-76
2023/01/15 06:07:34;;;;;;;29.73;12.70;;;9.30;96.30;;;;;;5068676;28;20288;-77
2023/01/15 06:10:03;;;;;;;33.13;12.73;;;9.30;96.30;;;;;;5069646;28;20198;-76
2023/01/15 06:12:33;;;;;;;29.73;13.10;;;9.30;96.20;;;;;;5061169;28;20245;-76
2023/01/15 06:15:02;;;;;;;31.03;13.43;;;9.30;96.20;;;;;;5072017;28;20191;-76
2023/01/15 06:17:30;;;;;;;28.27;12.33;;;9.30;96.10;;;;;;5067452;28;20635;-77
2023/01/15 06:19:59;;;;;;;25.23;12.13;;;9.30;96.10;;;;;;5063155;28;20197;-76
2023/01/15 06:22:28;;;;;;;28.23;12.43;;;9.30;96.10;;;;;;5067940;28;20194;-76
2023/01/15 06:24:56;;;;;;;30.37;12.57;;;9.30;96.10;;;;;;5074281;28;20222;-75
2023/01/15 06:27:25;;;;;;;30.50;13.63;;;9.30;96.10;;;;;;5068008;28;20206;-76
2023/01/15 06:29:53;;;;;;;29.87;13.37;;;9.30;96.10;;;;;;5069568;28;20195;-77
2023/01/15 06:32:23;;;;;;;31.80;14.23;;;9.30;96.00;;;;;;5066736;28;20222;-75
2023/01/15 06:34:51;;;;;;;34.10;14.43;;;9.30;95.90;;;;;;5065487;28;20198;-77
2023/01/15 06:37:19;;;;;;;28.50;12.53;;;9.30;96.00;;;;;;5074121;28;20251;-75
2023/01/15 06:39:47;;;;;;;34.87;12.30;;;9.30;96.00;;;;;;5052447;28;20628;-76
2023/01/15 06:47:49;;;;;;;33.17;13.50;;;9.30;95.90;;;;;;5060925;28;20221;-77
2023/01/15 06:50:17;;;;;;;34.57;13.23;;;9.30;95.90;;;;;;5059443;28;20216;-77
2023/01/15 06:52:45;;;;;;;40.60;14.30;;;9.30;95.90;;;;;;5069745;28;20232;-77
2023/01/15 06:55:14;;;;;;;40.70;15.27;;;9.30;95.90;;;;;;5061117;28;20195;-78
2023/01/15 06:57:42;;;;;;;39.13;14.93;;;9.40;95.90;;;;;;5065322;28;20248;-75
2023/01/15 07:00:12;;;;;;;39.50;15.63;;;9.30;95.90;;;;;;5063053;28;20198;-76
2023/01/15 07:02:41;;;;;;;46.03;16.27;;;9.30;95.90;;;;;;5069422;28;20222;-76
2023/01/15 07:05:11;;;;;;;41.80;14.97;;;9.30;96.00;;;;;;5060538;28;20205;-77
2023/01/15 07:07:39;;;;;;;39.47;15.13;;;9.30;96.00;;;;;;5067982;28;20244;-76
2023/01/15 07:10:08;;;;;;;38.83;15.60;;;9.30;96.00;;;;;;5066509;28;20259;-77
2023/01/15 07:12:37;;;;;;;41.87;15.30;;;9.30;96.10;;;;;;5061350;28;20190;-77
2023/01/15 07:15:06;;;;;;;44.73;15.83;;;9.40;96.10;;;;;;5067108;28;20186;-75
2023/01/15 07:17:34;;;;;;;45.00;15.47;;;9.40;96.10;;;;;;5065306;28;20222;-76
2023/01/15 07:20:03;;;;;;;42.40;16.50;;;9.40;96.10;;;;;;5064602;28;20190;-76
2023/01/15 07:22:32;;;;;;;49.07;16.57;;;9.40;96.10;;;;;;5067899;28;20237;-76
2023/01/15 07:25:01;;;;;;;42.53;15.57;;;9.50;96.10;;;;;;5061233;28;21530;-77
2023/01/15 07:27:29;;;;;;;43.53;16.57;;;9.50;96.00;;;;;;5063950;28;20244;-76
2023/01/15 07:29:57;;;;;;;41.17;17.50;;;9.50;96.00;;;;;;5071520;28;20187;-75
2023/01/15 07:32:26;;;;;;;43.97;17.37;;;9.50;95.90;;;;;;5068432;28;20195;-75
2023/01/15 07:34:54;;;;;;;44.97;17.77;;;9.40;95.90;;;;;;5066495;28;20207;-76
2023/01/15 07:37:22;;;;;;;42.83;16.23;;;9.40;95.80;;;;;;5065594;28;20249;-76
2023/01/15 07:39:52;;;;;;;43.30;17.53;;;9.40;95.90;;;;;;5068091;28;20194;-76
2023/01/15 07:50:39;;;;;;;42.97;18.13;;;9.40;95.90;;;;;;5057771;28;20186;-75
2023/01/15 07:53:08;;;;;;;40.70;16.40;;;9.40;95.80;;;;;;5065626;28;20222;-77
2023/01/15 07:55:38;;;;;;;43.43;17.30;;;9.50;95.90;;;;;;5067989;28;20267;-75
2023/01/15 07:58:06;;;;;;;40.00;17.40;;;9.40;95.90;;;;;;5066410;28;20573;-78
2023/01/15 08:00:34;;;;;;;45.20;17.67;;;9.40;95.80;;;;;;5065101;28;20190;-76
2023/01/15 08:03:02;;;;;;;39.23;16.77;;;9.40;95.80;;;;;;5069620;28;20190;-77
2023/01/15 08:05:31;;;;;;;40.53;17.13;;;9.50;95.80;;;;;;5066719;28;20195;-77
2023/01/15 08:07:59;;;;;;;39.03;15.40;;;9.40;95.60;;;;;;5060233;28;20248;-76
2023/01/15 08:10:27;;;;;;;42.30;18.67;;;9.40;95.60;;;;;;5064433;28;20228;-77
2023/01/15 08:15:43;;;;;;;40.03;15.70;;;9.40;95.60;;;;;;5066392;28;20589;-76
2023/01/15 08:18:11;;;;;;;35.03;16.23;;;9.40;95.60;;;;;;5061607;28;20186;-75
2023/01/15 08:20:40;;;;;;;33.73;14.93;;;9.50;95.70;;;;;;5067664;28;20187;-76
2023/01/15 08:23:09;;;;;;;30.73;14.33;;;9.40;95.60;;;;;;5069801;28;20652;-76
2023/01/15 08:25:37;;;;;;;34.30;14.20;;;9.40;95.60;;;;;;5063644;28;20187;-75
2023/01/15 08:28:07;;;;;;;29.80;14.23;;;9.50;95.60;;;;;;5057255;28;20190;-76
2023/01/15 08:30:36;;;;;;;28.87;13.80;;;9.50;95.50;;;;;;5063638;28;20558;-76
2023/01/15 08:33:04;;;;;;;26.93;13.13;;;9.40;95.20;;;;;;5061401;28;20248;-75
2023/01/15 08:35:34;;;;;;;25.60;12.77;;;9.40;95.20;;;;;;5050163;28;20253;-75
2023/01/15 08:38:05;;;;;;;25.30;11.43;;;9.50;95.30;;;;;;5055356;28;20685;-77
2023/01/15 08:40:34;;;;;;;22.73;10.80;;;9.50;95.20;;;;;;5061706;28;20225;-77
2023/01/15 08:43:03;;;;;;;21.57;11.00;;;9.40;95.10;;;;;;5062787;28;20752;-76
2023/01/15 08:45:33;;;;;;;20.07;10.27;;;9.40;95.10;;;;;;5069461;28;20194;-75
2023/01/15 08:48:01;;;;;;;22.07;10.77;;;9.50;95.10;;;;;;5061337;28;20226;-76
2023/01/15 08:50:29;;;;;;;23.77;11.57;;;9.40;94.90;;;;;;5072919;28;20230;-77
2023/01/15 08:52:58;;;;;;;23.83;10.47;;;9.50;95.10;;;;;;5063816;28;20226;-75
2023/01/15 08:55:26;;;;;;;24.23;11.87;;;9.50;95.00;;;;;;5064501;28;20198;-77
2023/01/15 08:57:54;;;;;;;22.93;11.03;;;9.50;95.10;;;;;;5066613;28;20520;-75
2023/01/15 09:00:23;;;;;;;19.60;10.10;;;9.50;95.10;;;;;;5069562;28;20715;-75
2023/01/15 09:02:53;;;;;;;20.90;10.83;;;9.60;95.00;;;;;;5063932;28;20285;-75
2023/01/15 09:05:21;;;;;;;22.73;10.63;;;9.60;95.10;;;;;;5066752;28;20655;-75
2023/01/15 09:07:50;;;;;;;25.00;11.87;;;9.70;95.00;;;;;;5067142;28;20256;-76
2023/01/15 09:10:18;;;;;;;23.07;10.90;;;9.70;95.00;;;;;;5069273;28;20623;-75
2023/01/15 09:12:47;;;;;;;22.77;10.50;;;9.80;94.90;;;;;;5066833;28;20217;-76
2023/01/15 09:15:15;;;;;;;25.93;12.23;;;9.80;94.90;;;;;;5063001;28;20198;-77
2023/01/15 09:17:44;;;;;;;22.23;9.80;;;9.80;94.80;;;;;;5068503;28;20199;-77
2023/01/15 09:20:16;;;;;;;25.30;11.63;;;9.80;94.70;;;;;;5068414;28;20198;-75
2023/01/15 09:22:44;;;;;;;21.03;10.10;;;9.90;94.50;;;;;;5077259;28;20186;-76
2023/01/15 09:25:13;;;;;;;20.63;10.37;;;9.80;94.30;;;;;;5067506;28;20202;-76
2023/01/15 09:27:41;;;;;;;22.67;10.37;;;9.80;94.30;;;;;;5071628;28;20229;-77
2023/01/15 09:30:16;;;;;;;23.43;10.33;;;9.80;94.40;;;;;;5078406;28;20191;-77
2023/01/15 09:32:45;;;;;;;20.70;9.93;;;9.80;94.30;;;;;;5077378;28;20641;-76
2023/01/15 09:35:15;;;;;;;17.77;9.27;;;9.80;94.20;;;;;;5070588;28;20659;-77
2023/01/15 09:37:43;;;;;;;19.50;9.07;;;9.80;94.20;;;;;;5062453;28;20256;-78
2023/01/15 09:40:32;;;;;;;18.20;9.27;;;9.80;94.10;;;;;;5062693;28;20288;-77
2023/01/15 09:43:07;;;;;;;19.10;8.60;;;9.80;94.00;;;;;;5062165;28;20206;-76
2023/01/15 09:45:44;;;;;;;18.47;9.53;;;9.80;93.90;;;;;;5066117;28;20181;-76
2023/01/15 09:48:26;;;;;;;21.77;8.60;;;9.80;93.90;;;;;;5067889;28;20214;-76
2023/01/15 09:51:08;;;;;;;16.53;8.70;;;9.90;94.00;;;;;;5068226;28;20193;-75
2023/01/15 09:53:54;;;;;;;19.50;8.97;;;10.00;94.10;;;;;;5069657;28;20225;-79
2023/01/15 09:56:26;;;;;;;18.33;9.43;;;10.00;94.20;;;;;;5066415;28;20202;-78
2023/01/15 09:58:57;;;;;;;17.00;8.33;;;10.00;93.80;;;;;;5066273;28;20244;-78
2023/01/15 10:01:28;;;;;;;18.57;9.97;;;10.00;93.70;;;;;;5068962;28;20195;-78
2023/01/15 10:04:02;;;;;;;18.53;8.53;;;10.10;93.80;;;;;;5072022;28;20248;-79
2023/01/15 10:06:36;;;;;;;24.07;9.33;;;10.20;93.80;;;;;;5061916;28;20659;-79
2023/01/15 10:09:11;;;;;;;16.53;7.57;;;10.20;93.50;;;;;;5069319;28;20232;-77
2023/01/15 10:14:38;;;;;;;15.80;7.70;;;10.30;93.10;;;;;;5071232;28;20720;-80
2023/01/15 10:17:18;;;;;;;13.73;6.83;;;10.30;93.00;;;;;;5070852;28;20878;-78
2023/01/15 10:19:47;;;;;;;18.20;7.90;;;10.40;92.90;;;;;;5065827;28;20631;-78
2023/01/15 10:22:26;;;;;;;15.40;8.50;;;10.40;92.80;;;;;;5064884;28;23664;-77
2023/01/15 10:24:57;;;;;;;15.60;7.90;;;10.50;92.80;;;;;;5062363;28;20202;-79
2023/01/15 10:27:28;;;;;;;15.23;7.23;;;10.50;92.50;;;;;;5065880;28;20207;-79
2023/01/15 10:30:05;;;;;;;15.47;7.33;;;10.50;92.60;;;;;;5067433;28;20305;-77
2023/01/15 10:32:44;;;;;;;19.65;9.00;;;10.60;92.50;;;;;;5072542;28;20987;-77
2023/01/15 10:35:38;;;;;;;17.47;8.53;;;10.60;92.50;;;;;;5063249;28;20198;-76
2023/01/15 10:38:16;;;;;;;16.33;7.93;;;10.60;92.50;;;;;;5066502;28;20187;-76
2023/01/15 10:41:03;;;;;;;18.57;8.27;;;10.60;91.80;;;;;;5067314;28;20300;-76
2023/01/15 10:43:43;;;;;;;17.77;8.67;;;10.60;91.70;;;;;;5059608;28;20182;-77
2023/01/15 10:46:14;;;;;;;20.73;8.83;;;10.60;91.50;;;;;;5062336;28;20193;-77
2023/01/15 10:48:46;;;;;;;16.87;8.90;;;10.70;91.80;;;;;;5063369;28;20322;-75
2023/01/15 10:51:18;;;;;;;19.00;8.97;;;10.70;91.40;;;;;;5066456;28;20190;-75
2023/01/15 10:53:51;;;;;;;16.80;8.53;;;10.70;91.50;;;;;;5058959;28;20214;-76
2023/01/15 10:56:31;;;;;;;18.37;10.17;;;10.70;91.40;;;;;;5058772;28;20703;-77
2023/01/15 10:59:10;;;;;;;17.77;8.83;;;10.80;91.50;;;;;;5061955;28;20205;-77
2023/01/15 11:01:40;;;;;;;17.27;9.03;;;10.80;91.50;;;;;;5061820;28;20223;-78
2023/01/15 11:04:12;;;;;;;18.10;9.50;;;10.70;91.00;;;;;;5071175;28;20216;-79
2023/01/15 11:06:40;;;;;;;17.43;8.53;;;10.80;91.00;;;;;;5064531;28;20194;-77
2023/01/15 11:09:19;;;;;;;19.93;9.30;;;10.80;90.90;;;;;;5068821;28;20218;-75
2023/01/15 11:20:27;;;;;;;15.27;7.77;;;10.80;90.90;;;;;;5066059;28;20260;-77
2023/01/15 11:22:57;;;;;;;15.67;8.57;;;10.80;90.80;;;;;;5063984;28;20183;-77
2023/01/15 11:25:29;;;;;;;15.90;7.47;;;10.80;90.60;;;;;;5056601;28;20253;-77
2023/01/15 11:27:59;;;;;;;16.77;8.27;;;10.80;90.70;;;;;;5060668;28;20220;-76
2023/01/15 11:30:30;;;;;;;20.65;10.05;;;10.70;90.60;;;;;;5065382;28;20517;-77
2023/01/15 11:33:02;;;;;;;19.13;8.87;;;10.80;90.90;;;;;;5053897;28;20595;-77
2023/01/15 11:35:32;;;;;;;21.57;8.60;;;10.80;91.00;;;;;;5066751;28;20190;-76
2023/01/15 11:38:05;;;;;;;19.97;8.90;;;10.80;90.70;;;;;;5064705;28;20190;-77
2023/01/15 11:40:35;;;;;;;19.33;8.53;;;10.80;90.80;;;;;;5075787;28;20263;-76
2023/01/15 11:51:38;;;;;;;17.30;8.70;;;10.80;90.30;;;;;;5068571;28;20287;-77
2023/01/15 11:54:10;;;;;;;18.77;8.60;;;10.90;90.50;;;;;;5063816;28;20267;-77
2023/01/15 11:56:42;;;;;;;19.10;9.37;;;10.90;90.60;;;;;;5057663;28;20659;-77
2023/01/15 11:59:13;;;;;;;19.73;8.43;;;11.00;90.60;;;;;;5064731;28;20559;-79
2023/01/15 12:01:53;;;;;;;17.93;8.27;;;11.00;90.10;;;;;;5059341;28;20550;-76
2023/01/15 12:04:33;;;;;;;17.87;8.63;;;10.90;90.00;;;;;;5059044;28;20195;-76
2023/01/15 12:07:02;;;;;;;17.97;8.37;;;10.90;89.60;;;;;;5062686;28;20731;-77
2023/01/15 12:09:59;;;;;;;17.53;8.20;;;11.00;90.00;;;;;;5072890;28;20236;-77
2023/01/15 12:12:41;;;;;;;21.53;9.80;;;11.00;90.60;;;;;;5068371;28;20209;-78
2023/01/15 12:15:42;;;;;;;22.90;9.63;;;11.00;90.20;;;;;;5068670;28;20198;-77
2023/01/15 12:18:52;;;;;;;20.13;9.93;;;11.00;90.00;;;;;;5022529;28;20501;-78
2023/01/15 12:21:47;;;;;;;19.27;9.17;;;11.00;90.20;;;;;;5072197;28;20225;-76
2023/01/15 12:24:35;;;;;;;20.00;8.53;;;11.10;90.30;;;;;;5067571;28;20186;-75
2023/01/15 12:27:15;;;;;;;20.67;8.00;;;11.10;90.10;;;;;;5065365;28;20620;-77
2023/01/15 12:29:49;;;;;;;17.13;8.00;;;11.10;90.20;;;;;;5060851;28;20206;-77
2023/01/15 12:32:22;;;;;;;15.33;7.73;;;11.10;90.00;;;;;;5066298;28;20202;-77
2023/01/15 12:34:54;;;;;;;14.90;7.07;;;11.10;89.70;;;;;;5064837;28;20193;-76
2023/01/15 12:37:28;;;;;;;16.93;7.80;;;11.10;89.40;;;;;;5068311;28;20662;-77
2023/01/15 12:40:05;;;;;;;15.80;7.23;;;11.10;89.60;;;;;;5063832;28;20235;-77
2023/01/15 12:45:26;;;;;;;15.67;7.20;;;11.20;89.30;;;;;;4990063;28;20202;-76
2023/01/15 12:48:01;;;;;;;14.40;7.23;;;11.20;89.10;;;;;;5069363;28;20186;-76
2023/01/15 12:50:43;;;;;;;13.27;6.57;;;11.30;89.10;;;;;;5065605;28;20187;-76
2023/01/15 12:53:16;;;;;;;12.93;6.33;;;11.30;88.70;;;;;;5066157;28;20222;-76
2023/01/15 12:55:50;;;;;;;14.60;6.80;;;11.40;87.70;;;;;;5054780;28;20196;-76
2023/01/15 12:58:37;;;;;;;12.13;6.70;;;11.40;87.40;;;;;;5064990;28;20563;-76
2023/01/15 13:01:19;;;;;;;12.43;6.13;;;11.50;86.90;;;;;;5063671;28;20191;-77
2023/01/15 13:03:58;;;;;;;15.33;7.20;;;11.60;86.50;;;;;;5067169;28;20190;-76
2023/01/15 13:06:27;;;;;;;13.13;6.07;;;11.70;87.20;;;;;;5067476;28;20193;-77
2023/01/15 13:09:03;;;;;;;13.57;6.77;;;11.80;86.80;;;;;;5060907;28;20220;-77
2023/01/15 13:11:32;;;;;;;9.33;5.00;;;11.90;87.30;;;;;;5068409;28;20190;-76
2023/01/15 13:14:00;;;;;;;12.63;5.67;;;11.90;86.20;;;;;;5058677;28;20227;-79
2023/01/15 13:16:40;;;;;;;10.50;5.30;;;12.00;84.80;;;;;;5063690;28;20203;-78
2023/01/15 13:19:30;;;;;;;13.17;5.63;;;12.00;84.50;;;;;;5057593;28;20592;-79
2023/01/15 13:22:05;;;;;;;10.63;6.00;;;12.00;84.40;;;;;;5067940;28;20262;-79
2023/01/15 13:24:57;;;;;;;11.83;5.83;;;11.90;83.90;;;;;;5058611;28;22445;-78
2023/01/15 13:27:46;;;;;;;9.00;5.20;;;11.80;82.60;;;;;;5064383;28;20186;-78
2023/01/15 13:30:26;;;;;;;8.87;4.90;;;11.70;81.90;;;;;;5066884;28;20279;-78
2023/01/15 13:33:04;;;;;;;8.80;4.70;;;11.70;81.40;;;;;;5066281;28;20236;-78
2023/01/15 13:35:36;;;;;;;10.00;5.40;;;11.50;81.10;;;;;;5067214;28;20202;-78
2023/01/15 13:38:11;;;;;;;13.23;6.53;;;11.50;81.80;;;;;;5062946;28;20194;-77
2023/01/15 13:40:49;;;;;;;14.07;5.93;;;11.50;82.10;;;;;;5069184;28;20611;-76
2023/01/15 13:43:30;;;;;;;10.97;5.53;;;11.40;82.30;;;;;;5054671;28;20194;-79
2023/01/15 13:46:00;;;;;;;10.43;5.30;;;11.40;82.20;;;;;;5066104;28;20190;-79
2023/01/15 13:48:33;;;;;;;11.73;5.87;;;11.30;82.20;;;;;;5056240;28;21592;-79
2023/01/15 13:51:03;;;;;;;12.80;5.80;;;11.30;82.20;;;;;;5067904;28;20183;-77